Time;durP1;ratioP1;P1;durP2;ratioP2;P2;SDS_P1;SDS_P2;PMS_P1;PMS_P2;Temp;Humidity;BMP_temperature;BMP_pressure;BME280_temperature;BME280_humidity;BME280_pressure;Samples;Min_cycle;Max_cycle;Signal;HPM_P1;HPM_P2
2023/11/05 00:00:30;;;;;;;2.50;0.50;;;6.40;99.90;;;;;;2082452;28;20776;-69
2023/11/05 00:01:30;;;;;;;0.50;0.50;;;6.40;99.90;;;;;;2086465;28;20227;-69
2023/11/05 00:02:31;;;;;;;0.73;0.73;;;6.40;99.90;;;;;;2077999;28;20231;-69
2023/11/05 00:03:31;;;;;;;0.60;0.60;;;6.40;99.90;;;;;;2077703;28;20283;-69
2023/11/05 00:04:32;;;;;;;2.30;0.40;;;6.40;99.90;;;;;;2083902;28;20233;-69
2023/11/05 00:05:33;;;;;;;1.07;0.43;;;6.40;99.90;;;;;;2079165;28;20231;-69
2023/11/05 00:06:37;;;;;;;0.47;0.47;;;6.40;99.90;;;;;;2079565;28;20239;-69
2023/11/05 00:07:37;;;;;;;1.35;0.50;;;6.40;99.90;;;;;;2083549;28;20730;-69
2023/11/05 00:08:38;;;;;;;3.13;0.67;;;6.30;99.90;;;;;;2083776;28;20232;-69
2023/11/05 00:09:38;;;;;;;0.30;0.30;;;6.40;99.90;;;;;;2085159;28;20231;-69
2023/11/05 00:10:39;;;;;;;1.37;0.43;;;6.40;99.90;;;;;;2082061;28;20227;-69
2023/11/05 00:11:40;;;;;;;1.23;0.77;;;6.40;99.90;;;;;;2079096;28;20227;-69
2023/11/05 00:12:41;;;;;;;0.57;0.40;;;6.40;99.90;;;;;;2080359;28;20235;-69
2023/11/05 00:13:41;;;;;;;1.70;0.60;;;6.40;99.90;;;;;;2088081;28;20277;-69
2023/11/05 00:14:42;;;;;;;0.87;0.40;;;6.40;99.90;;;;;;2090193;28;20231;-69
2023/11/05 00:15:43;;;;;;;1.63;0.83;;;6.40;99.90;;;;;;2088432;28;20225;-69
2023/11/05 00:16:43;;;;;;;0.53;0.53;;;6.40;99.90;;;;;;2082333;28;20231;-69
2023/11/05 00:17:44;;;;;;;0.30;0.30;;;6.40;99.90;;;;;;2079984;28;20216;-69
2023/11/05 00:18:44;;;;;;;0.70;0.70;;;6.40;99.90;;;;;;2080014;28;20305;-68
2023/11/05 00:19:45;;;;;;;0.47;0.47;;;6.40;99.90;;;;;;2090992;28;20265;-68
2023/11/05 00:20:46;;;;;;;1.03;0.53;;;6.30;99.90;;;;;;2080102;28;20346;-68
2023/11/05 00:21:46;;;;;;;0.40;0.40;;;6.30;99.90;;;;;;2080481;28;20233;-68
2023/11/05 00:22:47;;;;;;;1.43;0.40;;;6.30;99.90;;;;;;2084044;28;20605;-69
2023/11/05 00:23:47;;;;;;;0.40;0.40;;;6.30;99.90;;;;;;2085680;28;20219;-70
2023/11/05 00:24:48;;;;;;;1.40;0.60;;;6.30;99.90;;;;;;2087180;28;20633;-68
2023/11/05 00:25:48;;;;;;;0.30;0.30;;;6.30;99.90;;;;;;2084486;28;20224;-68
2023/11/05 00:26:49;;;;;;;1.60;0.60;;;6.30;99.90;;;;;;2080488;28;20225;-68
2023/11/05 00:27:49;;;;;;;0.60;0.40;;;6.40;99.90;;;;;;2078878;28;20294;-68
2023/11/05 00:28:50;;;;;;;0.50;0.50;;;6.40;99.90;;;;;;2081102;28;20220;-68
2023/11/05 00:29:51;;;;;;;2.10;0.50;;;6.40;99.90;;;;;;2079363;28;20756;-68
2023/11/05 00:30:52;;;;;;;0.40;0.40;;;6.40;99.90;;;;;;2083452;28;20615;-68
2023/11/05 00:31:53;;;;;;;2.43;0.50;;;6.40;99.90;;;;;;2085487;28;20208;-74
2023/11/05 00:32:53;;;;;;;1.27;0.50;;;6.40;99.90;;;;;;2091496;28;20262;-69
2023/11/05 00:33:54;;;;;;;1.50;0.40;;;6.40;99.90;;;;;;2093186;28;20223;-68
2023/11/05 00:34:54;;;;;;;2.23;0.53;;;6.40;99.90;;;;;;2094613;28;20642;-69
2023/11/05 00:35:55;;;;;;;0.57;0.40;;;6.40;99.90;;;;;;2086120;28;20227;-69
2023/11/05 00:36:56;;;;;;;0.47;0.30;;;6.40;99.90;;;;;;2094908;28;20231;-69
2023/11/05 00:37:56;;;;;;;1.43;0.60;;;6.30;99.90;;;;;;2088028;28;20216;-68
2023/11/05 00:38:57;;;;;;;1.17;0.43;;;6.40;99.90;;;;;;2086808;28;20232;-68
2023/11/05 00:39:57;;;;;;;1.00;0.60;;;6.40;99.90;;;;;;2089496;28;20239;-68
2023/11/05 00:40:58;;;;;;;0.50;0.50;;;6.40;99.90;;;;;;2082737;28;20248;-68
2023/11/05 00:41:58;;;;;;;0.87;0.40;;;6.40;99.90;;;;;;2082180;28;20228;-68
2023/11/05 00:42:59;;;;;;;0.40;0.40;;;6.30;99.90;;;;;;2082812;28;20310;-68
2023/11/05 00:44:00;;;;;;;0.70;0.30;;;6.30;99.90;;;;;;2083212;28;20218;-69
2023/11/05 00:45:00;;;;;;;0.63;0.63;;;6.30;99.90;;;;;;2085798;28;20224;-69
2023/11/05 00:46:01;;;;;;;0.87;0.60;;;6.30;99.90;;;;;;2093618;28;20207;-70
2023/11/05 00:47:02;;;;;;;0.70;0.50;;;6.30;99.90;;;;;;2093428;28;20188;-70
2023/11/05 00:48:02;;;;;;;0.93;0.40;;;6.40;99.90;;;;;;2091519;28;20559;-69
2023/11/05 00:49:03;;;;;;;0.50;0.50;;;6.40;99.90;;;;;;2087091;28;20207;-69
2023/11/05 00:50:04;;;;;;;0.70;0.40;;;6.40;99.90;;;;;;2090990;28;20191;-69
2023/11/05 00:51:06;;;;;;;0.50;0.50;;;6.50;99.90;;;;;;2090734;28;20722;-69
2023/11/05 00:52:06;;;;;;;0.43;0.40;;;6.50;99.90;;;;;;2090710;28;20192;-69
2023/11/05 00:53:07;;;;;;;0.53;0.40;;;6.50;99.90;;;;;;2090719;28;20275;-69
2023/11/05 00:54:09;;;;;;;0.83;0.50;;;6.60;99.90;;;;;;2091339;28;20231;-69
2023/11/05 00:55:09;;;;;;;0.88;0.40;;;6.60;99.90;;;;;;2089510;28;20207;-69
2023/11/05 00:56:10;;;;;;;2.00;0.60;;;6.60;99.90;;;;;;2082955;28;20181;-69
2023/11/05 00:57:10;;;;;;;3.60;0.50;;;6.60;99.90;;;;;;2082381;28;20198;-69
2023/11/05 00:58:11;;;;;;;0.63;0.50;;;6.60;99.90;;;;;;2082327;28;20218;-69
2023/11/05 00:59:12;;;;;;;0.40;0.40;;;6.60;99.90;;;;;;2073706;28;20220;-69
2023/11/05 01:00:13;;;;;;;1.40;0.50;;;6.60;99.90;;;;;;2085272;28;20181;-69
2023/11/05 01:01:14;;;;;;;0.40;0.40;;;6.70;99.90;;;;;;2091558;28;20218;-69
2023/11/05 01:02:14;;;;;;;0.52;0.50;;;6.60;99.90;;;;;;2092068;28;20202;-69
2023/11/05 01:03:15;;;;;;;1.53;0.50;;;6.60;99.90;;;;;;2092499;28;20180;-69
2023/11/05 01:04:16;;;;;;;1.67;0.40;;;6.60;99.90;;;;;;2084032;28;20185;-68
2023/11/05 01:05:16;;;;;;;0.70;0.50;;;6.60;99.90;;;;;;2095662;28;20208;-68
2023/11/05 01:06:17;;;;;;;0.83;0.53;;;6.50;99.90;;;;;;2092416;28;20591;-69
2023/11/05 01:07:18;;;;;;;0.80;0.80;;;6.50;99.90;;;;;;2092578;28;20480;-68
2023/11/05 01:08:18;;;;;;;1.13;0.67;;;6.50;99.90;;;;;;2092154;28;20196;-68
2023/11/05 01:09:19;;;;;;;0.50;0.50;;;6.50;99.90;;;;;;2091442;28;20223;-68
2023/11/05 01:10:20;;;;;;;0.83;0.50;;;6.60;99.90;;;;;;2091779;28;20215;-68
2023/11/05 01:11:20;;;;;;;2.43;0.57;;;6.60;99.90;;;;;;2085628;28;20376;-68
2023/11/05 01:12:21;;;;;;;1.30;0.60;;;6.60;99.90;;;;;;2079698;28;20235;-68
2023/11/05 01:13:22;;;;;;;0.63;0.50;;;6.50;99.90;;;;;;2088934;28;20290;-68
2023/11/05 01:14:22;;;;;;;0.37;0.37;;;6.50;99.90;;;;;;2085666;28;20232;-68
2023/11/05 01:15:23;;;;;;;3.07;0.60;;;6.60;99.90;;;;;;2088351;28;20258;-68
2023/11/05 01:16:23;;;;;;;0.63;0.40;;;6.60;99.90;;;;;;2083153;28;20323;-68
2023/11/05 01:17:24;;;;;;;1.13;0.53;;;6.60;99.90;;;;;;2086138;28;20984;-69
2023/11/05 01:18:26;;;;;;;0.50;0.50;;;6.60;99.90;;;;;;2084332;28;20236;-69
2023/11/05 01:19:27;;;;;;;2.60;0.40;;;6.60;99.90;;;;;;2077764;28;20229;-68
2023/11/05 01:20:28;;;;;;;2.45;0.60;;;6.60;99.90;;;;;;2083379;28;20231;-68
2023/11/05 01:21:29;;;;;;;1.33;0.73;;;6.70;99.90;;;;;;2085935;28;20239;-68
2023/11/05 01:22:29;;;;;;;1.07;0.43;;;6.70;99.90;;;;;;2096150;28;20261;-69
2023/11/05 01:23:30;;;;;;;4.13;0.53;;;6.60;99.90;;;;;;2096306;28;20365;-68
2023/11/05 01:24:30;;;;;;;1.53;0.50;;;6.60;99.90;;;;;;2092479;28;20235;-68
2023/11/05 01:25:31;;;;;;;0.50;0.43;;;6.60;99.90;;;;;;2091952;28;20441;-68
2023/11/05 01:26:32;;;;;;;1.90;0.50;;;6.60;99.90;;;;;;2091411;28;20239;-68
2023/11/05 01:27:32;;;;;;;1.33;0.57;;;6.50;99.90;;;;;;2090528;28;20289;-68
2023/11/05 01:28:33;;;;;;;0.87;0.40;;;6.50;99.90;;;;;;2091985;28;20236;-69
2023/11/05 01:29:35;;;;;;;1.33;0.50;;;6.50;99.90;;;;;;2092182;28;20235;-68
2023/11/05 01:30:35;;;;;;;1.05;0.60;;;6.60;99.90;;;;;;2090666;28;20313;-68
2023/11/05 01:31:36;;;;;;;0.40;0.40;;;6.60;99.90;;;;;;2091520;28;20278;-68
2023/11/05 01:32:37;;;;;;;0.70;0.40;;;6.60;99.90;;;;;;2096359;28;20284;-68
2023/11/05 01:33:37;;;;;;;1.27;0.70;;;6.60;99.90;;;;;;2096253;28;20829;-68
2023/11/05 01:34:38;;;;;;;0.90;0.63;;;6.60;99.90;;;;;;2091866;28;20323;-68
2023/11/05 01:35:38;;;;;;;1.03;0.50;;;6.60;99.90;;;;;;2094992;28;20449;-68
2023/11/05 01:36:39;;;;;;;1.07;0.70;;;6.60;99.90;;;;;;2096172;28;20659;-68
2023/11/05 01:37:40;;;;;;;1.90;0.50;;;6.60;99.90;;;;;;2091857;28;20309;-69
2023/11/05 01:38:40;;;;;;;0.50;0.50;;;6.60;99.90;;;;;;2090647;28;20258;-68
2023/11/05 01:39:41;;;;;;;1.40;0.40;;;6.50;99.90;;;;;;2092954;28;20246;-68
2023/11/05 01:40:41;;;;;;;1.87;0.57;;;6.50;99.90;;;;;;2092253;28;20666;-68
2023/11/05 01:41:42;;;;;;;3.07;1.13;;;6.50;99.90;;;;;;2091016;28;20600;-68
2023/11/05 01:42:42;;;;;;;3.60;0.60;;;6.40;99.90;;;;;;2090792;28;20222;-68
2023/11/05 01:43:43;;;;;;;0.93;0.60;;;6.50;99.90;;;;;;2091457;28;20219;-68
2023/11/05 01:44:44;;;;;;;0.60;0.60;;;6.50;99.90;;;;;;2092153;28;20238;-68
2023/11/05 01:45:44;;;;;;;2.23;0.47;;;6.50;99.90;;;;;;2090565;28;20230;-68
2023/11/05 01:46:45;;;;;;;2.07;0.70;;;6.50;99.90;;;;;;2091463;28;20731;-69
2023/11/05 01:47:46;;;;;;;0.77;0.67;;;6.50;99.90;;;;;;2092041;28;20227;-68
2023/11/05 01:48:47;;;;;;;0.73;0.50;;;6.50;99.90;;;;;;2091128;28;20251;-68
2023/11/05 01:49:48;;;;;;;1.35;0.50;;;6.50;99.90;;;;;;2091701;28;20215;-69
2023/11/05 01:50:49;;;;;;;1.85;0.70;;;6.50;99.90;;;;;;2090443;28;20242;-68
2023/11/05 01:51:50;;;;;;;1.20;0.70;;;6.40;99.90;;;;;;2090613;28;20246;-68
2023/11/05 01:52:55;;;;;;;1.08;0.60;;;6.40;99.90;;;;;;2084281;28;20285;-69
2023/11/05 01:53:56;;;;;;;0.90;0.50;;;6.40;99.90;;;;;;2080871;28;20274;-69
2023/11/05 01:54:57;;;;;;;1.65;0.80;;;6.40;99.90;;;;;;2081047;28;20232;-69
2023/11/05 01:55:58;;;;;;;3.33;0.60;;;6.40;99.90;;;;;;2092170;28;20298;-69
2023/11/05 01:56:58;;;;;;;2.40;0.70;;;6.50;99.90;;;;;;2091615;28;20812;-69
2023/11/05 01:57:59;;;;;;;2.80;0.60;;;6.50;99.90;;;;;;2100015;28;20716;-68
2023/11/05 01:59:02;;;;;;;0.57;0.50;;;6.40;99.90;;;;;;2083526;28;20232;-69
2023/11/05 02:00:03;;;;;;;3.38;0.70;;;6.40;99.90;;;;;;2091789;28;20222;-68
2023/11/05 02:01:05;;;;;;;3.85;0.80;;;6.40;99.90;;;;;;2091941;28;20239;-69
2023/11/05 02:02:07;;;;;;;0.80;0.80;;;6.30;99.90;;;;;;2089453;28;20241;-69
2023/11/05 02:03:08;;;;;;;2.45;0.80;;;6.30;99.90;;;;;;2094552;28;20318;-68
2023/11/05 02:04:09;;;;;;;1.20;0.67;;;6.20;99.90;;;;;;2092839;28;20306;-68
2023/11/05 02:05:10;;;;;;;0.80;0.80;;;6.20;99.90;;;;;;2082907;28;20555;-67
2023/11/05 02:06:12;;;;;;;1.20;0.60;;;6.30;99.90;;;;;;2081689;28;20284;-69
2023/11/05 02:07:12;;;;;;;2.15;0.75;;;6.20;99.90;;;;;;2082760;28;20184;-69
2023/11/05 02:08:13;;;;;;;1.90;0.60;;;6.30;99.90;;;;;;2083272;28;20565;-69
2023/11/05 02:09:14;;;;;;;2.03;0.70;;;6.30;99.90;;;;;;2080650;28;20250;-69
2023/11/05 02:10:15;;;;;;;0.63;0.60;;;6.20;99.90;;;;;;2082995;28;20197;-68
2023/11/05 02:11:16;;;;;;;3.47;0.80;;;6.30;99.90;;;;;;2089783;28;20257;-68
2023/11/05 02:12:16;;;;;;;1.00;0.60;;;6.30;99.90;;;;;;2088756;28;20215;-69
2023/11/05 02:13:17;;;;;;;1.03;0.43;;;6.20;99.90;;;;;;2081864;28;20262;-68
2023/11/05 02:14:18;;;;;;;1.00;0.60;;;6.20;99.90;;;;;;2080814;28;20193;-69
2023/11/05 02:15:18;;;;;;;0.83;0.50;;;6.30;99.90;;;;;;2081012;28;20600;-68
2023/11/05 02:16:20;;;;;;;1.97;0.70;;;6.30;99.90;;;;;;2083350;28;20196;-68
2023/11/05 02:17:21;;;;;;;2.13;0.70;;;6.40;99.90;;;;;;2086735;28;20699;-69
2023/11/05 02:18:22;;;;;;;3.43;0.60;;;6.60;99.90;;;;;;2079577;28;20236;-69
2023/11/05 02:19:22;;;;;;;2.43;0.60;;;6.60;99.90;;;;;;2079983;28;20236;-69
2023/11/05 02:20:23;;;;;;;2.30;0.70;;;6.70;99.90;;;;;;2080326;28;20768;-69
2023/11/05 02:21:27;;;;;;;1.67;0.60;;;6.70;99.90;;;;;;2080336;28;20255;-68
2023/11/05 02:22:29;;;;;;;0.77;0.50;;;6.80;99.90;;;;;;2080745;28;20228;-68
2023/11/05 02:23:34;;;;;;;0.77;0.75;;;6.80;99.90;;;;;;2079628;28;20278;-69
2023/11/05 02:24:35;;;;;;;0.73;0.57;;;6.80;99.90;;;;;;2081795;28;20258;-69
2023/11/05 02:25:35;;;;;;;1.07;0.60;;;6.80;99.90;;;;;;2089552;28;20393;-69
2023/11/05 02:26:36;;;;;;;1.40;0.80;;;6.70;99.90;;;;;;2092497;28;20311;-68
2023/11/05 02:27:36;;;;;;;1.10;0.70;;;6.80;99.90;;;;;;2081990;28;20223;-69
2023/11/05 02:28:37;;;;;;;1.53;0.70;;;7.00;99.90;;;;;;2080083;28;20223;-69
2023/11/05 02:29:38;;;;;;;1.50;0.60;;;7.00;99.90;;;;;;2079997;28;20287;-69
2023/11/05 02:30:38;;;;;;;1.33;0.60;;;7.10;99.90;;;;;;2080365;28;20239;-68
2023/11/05 02:31:39;;;;;;;3.20;1.03;;;7.10;99.90;;;;;;2080116;28;20322;-69
2023/11/05 02:32:39;;;;;;;3.67;0.90;;;7.10;99.90;;;;;;2080811;28;20239;-69
2023/11/05 02:33:42;;;;;;;1.67;0.73;;;7.10;99.90;;;;;;2079163;28;20227;-69
2023/11/05 02:34:42;;;;;;;0.88;0.60;;;7.00;99.90;;;;;;2079624;28;20251;-69
2023/11/05 02:35:43;;;;;;;2.00;0.70;;;7.00;99.90;;;;;;2079838;28;20800;-69
2023/11/05 02:36:45;;;;;;;0.87;0.50;;;7.10;99.90;;;;;;2079773;28;20315;-69
2023/11/05 02:37:45;;;;;;;0.77;0.60;;;7.10;99.90;;;;;;2079306;28;20813;-69
2023/11/05 02:38:46;;;;;;;1.77;0.60;;;7.10;99.90;;;;;;2081630;28;20232;-68
2023/11/05 02:39:47;;;;;;;3.40;0.97;;;7.00;99.90;;;;;;2083391;28;20216;-69
2023/11/05 02:40:48;;;;;;;1.23;0.70;;;7.00;99.90;;;;;;2080768;28;20277;-69
2023/11/05 02:41:48;;;;;;;1.13;1.02;;;6.90;99.90;;;;;;2080648;28;20229;-69
2023/11/05 02:42:49;;;;;;;2.77;0.83;;;7.00;99.90;;;;;;2079274;28;20816;-69
2023/11/05 02:43:50;;;;;;;2.27;0.50;;;7.00;99.90;;;;;;2079894;28;20224;-69
2023/11/05 02:44:51;;;;;;;1.30;0.93;;;7.00;99.90;;;;;;2080064;28;20251;-69
2023/11/05 02:45:51;;;;;;;1.40;0.98;;;7.10;99.90;;;;;;2079837;28;20232;-69
2023/11/05 02:46:52;;;;;;;1.27;0.57;;;7.00;99.90;;;;;;2085765;28;20223;-68
2023/11/05 02:47:52;;;;;;;2.07;0.50;;;7.00;99.90;;;;;;2086916;28;20227;-69
2023/11/05 02:48:53;;;;;;;2.07;0.50;;;6.90;99.90;;;;;;2090560;28;20251;-68
2023/11/05 02:49:54;;;;;;;3.90;0.60;;;6.90;99.90;;;;;;2087277;28;20348;-69
2023/11/05 02:50:55;;;;;;;0.93;0.80;;;7.00;99.90;;;;;;2079214;28;20631;-69
2023/11/05 02:51:55;;;;;;;2.10;0.80;;;7.10;99.90;;;;;;2079591;28;20225;-69
2023/11/05 02:52:56;;;;;;;2.37;1.13;;;7.00;99.90;;;;;;2086272;28;20265;-69
2023/11/05 02:53:57;;;;;;;5.13;0.90;;;7.00;99.90;;;;;;2086392;28;20249;-69
2023/11/05 02:55:00;;;;;;;1.60;0.60;;;7.00;99.90;;;;;;2082353;28;20228;-68
2023/11/05 02:56:03;;;;;;;1.00;0.70;;;6.90;99.90;;;;;;2079592;28;20600;-69
2023/11/05 02:57:04;;;;;;;2.05;0.60;;;7.00;99.90;;;;;;2080629;28;20195;-68
2023/11/05 02:58:04;;;;;;;1.00;0.60;;;7.00;99.90;;;;;;2080140;28;20268;-69
2023/11/05 02:59:06;;;;;;;2.10;1.13;;;7.00;99.90;;;;;;2079808;28;20213;-68
2023/11/05 03:00:10;;;;;;;1.27;0.70;;;7.00;99.90;;;;;;2079686;28;20554;-68
2023/11/05 03:01:11;;;;;;;3.40;0.98;;;7.10;99.90;;;;;;2079341;28;20191;-69
2023/11/05 03:02:11;;;;;;;3.37;1.10;;;7.10;99.90;;;;;;2079040;28;20303;-68
2023/11/05 03:03:13;;;;;;;3.03;1.07;;;7.10;99.90;;;;;;2083211;28;20283;-68
2023/11/05 03:04:14;;;;;;;1.05;0.47;;;7.20;99.90;;;;;;2083515;28;20242;-71
2023/11/05 03:05:15;;;;;;;1.03;0.70;;;7.20;99.90;;;;;;2083262;28;20273;-68
2023/11/05 03:06:15;;;;;;;0.83;0.50;;;7.20;99.90;;;;;;2079891;28;20191;-69
2023/11/05 03:07:16;;;;;;;2.27;0.73;;;7.20;99.90;;;;;;2084817;28;20188;-68
2023/11/05 03:08:16;;;;;;;1.60;0.70;;;7.30;99.90;;;;;;2090265;28;20211;-68
2023/11/05 03:09:24;;;;;;;1.30;0.70;;;7.30;99.90;;;;;;2088763;28;20242;-68
2023/11/05 03:10:25;;;;;;;3.05;0.70;;;7.40;99.90;;;;;;2087040;28;20710;-68
2023/11/05 03:11:25;;;;;;;2.40;0.90;;;7.40;99.90;;;;;;2083961;28;20229;-68
2023/11/05 03:12:26;;;;;;;1.43;0.60;;;7.40;99.90;;;;;;2087983;28;20231;-69
2023/11/05 03:13:26;;;;;;;0.77;0.70;;;7.50;99.90;;;;;;2090477;28;20301;-68
2023/11/05 03:14:27;;;;;;;2.67;0.80;;;7.40;99.90;;;;;;2078561;28;20339;-68
2023/11/05 03:15:28;;;;;;;2.40;0.80;;;7.40;99.90;;;;;;2082188;28;20666;-68
2023/11/05 03:16:29;;;;;;;1.33;0.83;;;7.40;99.90;;;;;;2080818;28;20382;-68
2023/11/05 03:17:30;;;;;;;3.40;0.60;;;7.40;99.90;;;;;;2087183;28;20234;-68
2023/11/05 03:18:30;;;;;;;1.60;0.50;;;7.50;99.90;;;;;;2089056;28;20234;-68
2023/11/05 03:19:31;;;;;;;1.77;0.40;;;7.40;99.90;;;;;;2094110;28;20272;-68
2023/11/05 03:20:31;;;;;;;2.07;0.57;;;7.40;99.90;;;;;;2086463;28;20260;-68
2023/11/05 03:21:32;;;;;;;1.13;1.03;;;7.50;99.90;;;;;;2094268;28;20227;-68
2023/11/05 03:22:34;;;;;;;1.10;0.60;;;7.50;99.90;;;;;;2093985;28;20235;-68
2023/11/05 03:23:35;;;;;;;2.22;0.80;;;7.50;99.90;;;;;;2089960;28;20725;-68
2023/11/05 03:24:35;;;;;;;2.37;0.63;;;7.50;99.90;;;;;;2095555;28;20231;-68
2023/11/05 03:25:38;;;;;;;1.70;0.80;;;7.60;99.90;;;;;;2093932;28;20284;-68
2023/11/05 03:26:38;;;;;;;2.45;0.75;;;7.60;99.90;;;;;;2091641;28;20836;-68
2023/11/05 03:27:39;;;;;;;1.13;0.73;;;7.70;99.90;;;;;;2091108;28;20324;-68
2023/11/05 03:28:40;;;;;;;1.90;0.70;;;7.70;99.90;;;;;;2091701;28;20319;-68
2023/11/05 03:29:40;;;;;;;2.77;0.70;;;7.70;99.90;;;;;;2091295;28;20281;-68
2023/11/05 03:30:41;;;;;;;0.67;0.63;;;7.70;99.90;;;;;;2093850;28;20316;-68
2023/11/05 03:31:42;;;;;;;1.17;0.80;;;7.70;99.90;;;;;;2090343;28;20314;-67
2023/11/05 03:32:43;;;;;;;2.17;0.60;;;7.80;99.90;;;;;;2090413;28;20226;-68
2023/11/05 03:33:44;;;;;;;0.80;0.53;;;7.80;99.90;;;;;;2091535;28;20708;-68
2023/11/05 03:34:45;;;;;;;1.60;0.50;;;7.80;99.90;;;;;;2088536;28;20223;-67
2023/11/05 03:35:45;;;;;;;2.13;0.73;;;7.80;99.90;;;;;;2090083;28;20223;-68
2023/11/05 03:36:46;;;;;;;0.53;0.40;;;7.90;99.90;;;;;;2091610;28;20227;-68
2023/11/05 03:37:47;;;;;;;2.30;0.70;;;7.90;99.90;;;;;;2087720;28;20724;-67
2023/11/05 03:38:47;;;;;;;2.70;0.60;;;7.80;99.90;;;;;;2090598;28;20302;-68
2023/11/05 03:39:50;;;;;;;1.53;0.67;;;7.80;99.90;;;;;;2091815;28;20225;-67
2023/11/05 03:40:51;;;;;;;1.33;0.65;;;7.90;99.90;;;;;;2084236;28;20226;-68
2023/11/05 03:41:51;;;;;;;1.23;0.60;;;7.80;99.90;;;;;;2095233;28;20223;-68
2023/11/05 03:42:52;;;;;;;0.87;0.70;;;7.80;99.90;;;;;;2097664;28;20280;-67
2023/11/05 03:43:53;;;;;;;1.00;0.40;;;7.90;99.90;;;;;;2090682;28;20227;-68
2023/11/05 03:44:53;;;;;;;2.70;0.97;;;7.90;99.90;;;;;;2089661;28;20227;-68
2023/11/05 03:45:55;;;;;;;2.00;1.10;;;8.00;99.90;;;;;;2088034;28;20263;-69
2023/11/05 03:46:58;;;;;;;1.45;0.60;;;8.00;99.90;;;;;;2090872;28;20299;-69
2023/11/05 03:47:59;;;;;;;1.60;0.60;;;8.10;99.90;;;;;;2090047;28;20820;-68
2023/11/05 03:48:59;;;;;;;0.57;0.50;;;8.10;99.90;;;;;;2089611;28;20235;-68
2023/11/05 03:50:00;;;;;;;0.83;0.60;;;8.10;99.90;;;;;;2090518;28;20701;-68
2023/11/05 03:51:00;;;;;;;2.13;0.63;;;8.10;99.90;;;;;;2095015;28;20223;-69
2023/11/05 03:52:03;;;;;;;1.67;0.73;;;8.10;99.90;;;;;;2098407;28;20194;-69
2023/11/05 03:53:03;;;;;;;0.82;0.50;;;8.00;99.90;;;;;;2090454;28;20183;-68
2023/11/05 03:54:04;;;;;;;0.77;0.53;;;8.00;99.90;;;;;;2089870;28;20207;-68
2023/11/05 03:55:05;;;;;;;0.97;0.63;;;8.00;99.90;;;;;;2089506;28;20199;-68
2023/11/05 03:56:06;;;;;;;2.30;0.70;;;8.00;99.90;;;;;;2093676;28;20225;-69
2023/11/05 03:57:06;;;;;;;3.20;0.82;;;8.00;99.90;;;;;;2094667;28;20252;-69
2023/11/05 03:58:07;;;;;;;0.97;0.43;;;8.00;99.90;;;;;;2090111;28;20283;-69
2023/11/05 03:59:07;;;;;;;2.50;0.80;;;8.00;99.90;;;;;;2090553;28;20212;-68
2023/11/05 04:00:09;;;;;;;1.13;0.50;;;8.00;99.90;;;;;;2090098;28;20202;-69
2023/11/05 04:01:16;;;;;;;2.80;0.80;;;7.90;99.90;;;;;;2090599;28;20548;-68
2023/11/05 04:02:17;;;;;;;1.17;0.50;;;7.90;99.90;;;;;;2089728;28;20233;-69
2023/11/05 04:03:18;;;;;;;1.63;0.53;;;7.70;99.90;;;;;;2089954;28;20732;-68
2023/11/05 04:04:18;;;;;;;1.07;0.60;;;7.70;99.90;;;;;;2097848;28;20761;-68
2023/11/05 04:05:19;;;;;;;0.83;0.50;;;7.70;99.90;;;;;;2097760;28;20687;-68
2023/11/05 04:06:20;;;;;;;1.57;0.60;;;7.70;99.90;;;;;;2089744;28;20270;-68
2023/11/05 04:07:20;;;;;;;2.80;0.70;;;7.70;99.90;;;;;;2089312;28;20239;-68
2023/11/05 04:08:21;;;;;;;0.70;0.40;;;7.60;99.90;;;;;;2089633;28;20236;-68
2023/11/05 04:09:22;;;;;;;1.10;0.50;;;7.60;99.90;;;;;;2089548;28;20235;-68
2023/11/05 04:10:23;;;;;;;1.15;0.50;;;7.60;99.90;;;;;;2096996;28;20237;-68
2023/11/05 04:11:23;;;;;;;1.50;0.50;;;7.60;99.90;;;;;;2092808;28;20230;-68
2023/11/05 04:12:24;;;;;;;0.47;0.47;;;7.60;99.90;;;;;;2094382;28;20309;-68
2023/11/05 04:13:24;;;;;;;1.13;0.70;;;7.60;99.90;;;;;;2089952;28;20315;-68
2023/11/05 04:14:26;;;;;;;1.50;0.43;;;7.70;99.90;;;;;;2089876;28;20228;-68
2023/11/05 04:15:26;;;;;;;1.13;0.70;;;7.70;99.90;;;;;;2092729;28;20231;-68
2023/11/05 04:16:27;;;;;;;1.50;0.60;;;7.70;99.90;;;;;;2089785;28;20833;-69
2023/11/05 04:17:27;;;;;;;0.27;0.27;;;7.70;99.90;;;;;;2094434;28;20637;-68
2023/11/05 04:18:28;;;;;;;1.50;0.50;;;7.60;99.90;;;;;;2088808;28;20238;-69
2023/11/05 04:19:29;;;;;;;0.40;0.40;;;7.60;99.90;;;;;;2083798;28;20241;-68
2023/11/05 04:20:29;;;;;;;1.37;0.40;;;7.70;99.90;;;;;;2085482;28;20232;-68
2023/11/05 04:21:30;;;;;;;1.27;0.60;;;7.60;99.90;;;;;;2084341;28;20232;-68
2023/11/05 04:22:31;;;;;;;1.90;0.50;;;7.60;99.90;;;;;;2079467;28;20237;-68
2023/11/05 04:23:32;;;;;;;1.48;0.47;;;7.60;99.90;;;;;;2079817;28;20237;-68
2023/11/05 04:24:33;;;;;;;0.65;0.40;;;7.60;99.90;;;;;;2084205;28;20831;-68
2023/11/05 04:25:34;;;;;;;1.90;0.50;;;7.70;99.90;;;;;;2090223;28;20376;-68
2023/11/05 04:26:34;;;;;;;2.07;0.50;;;7.70;99.90;;;;;;2084126;28;20260;-68
2023/11/05 04:27:35;;;;;;;3.20;0.70;;;7.70;99.90;;;;;;2089195;28;20235;-68
2023/11/05 04:28:35;;;;;;;1.17;0.60;;;7.70;99.90;;;;;;2092721;28;20231;-68
2023/11/05 04:29:36;;;;;;;0.73;0.50;;;7.70;99.90;;;;;;2085889;28;20293;-68
2023/11/05 04:30:36;;;;;;;0.67;0.60;;;7.80;99.90;;;;;;2090120;28;20577;-68
2023/11/05 04:31:37;;;;;;;2.23;0.40;;;7.80;99.90;;;;;;2089413;28;20228;-68
2023/11/05 04:32:38;;;;;;;1.90;0.50;;;7.80;99.90;;;;;;2090838;28;20231;-68
2023/11/05 04:33:38;;;;;;;1.80;0.43;;;7.70;99.90;;;;;;2094081;28;20246;-68
2023/11/05 04:34:39;;;;;;;0.90;0.57;;;7.60;99.90;;;;;;2094611;28;20360;-68
2023/11/05 04:35:39;;;;;;;1.03;0.53;;;7.60;99.90;;;;;;2090218;28;20328;-68
2023/11/05 04:36:43;;;;;;;0.93;0.47;;;7.50;99.90;;;;;;2097188;28;20261;-67
2023/11/05 04:37:44;;;;;;;0.40;0.30;;;7.40;99.90;;;;;;2098123;28;20241;-67
2023/11/05 04:38:44;;;;;;;1.93;0.60;;;7.40;99.90;;;;;;2086271;28;20713;-67
2023/11/05 04:39:45;;;;;;;0.30;0.30;;;7.30;99.90;;;;;;2094643;28;20226;-67
2023/11/05 04:40:45;;;;;;;1.40;0.57;;;7.30;99.90;;;;;;2090461;28;20220;-67
2023/11/05 04:41:46;;;;;;;1.60;0.90;;;7.30;99.90;;;;;;2091911;28;20335;-68
2023/11/05 04:42:47;;;;;;;2.47;0.50;;;7.10;99.90;;;;;;2092680;28;20298;-69
2023/11/05 04:43:47;;;;;;;0.87;0.70;;;7.10;99.90;;;;;;2091039;28;20644;-68
2023/11/05 04:44:48;;;;;;;0.67;0.40;;;7.10;99.90;;;;;;2090178;28;20227;-69
2023/11/05 04:45:49;;;;;;;3.13;0.70;;;7.00;99.90;;;;;;2090277;28;20250;-69
2023/11/05 04:46:49;;;;;;;0.83;0.60;;;7.00;99.90;;;;;;2091737;28;20223;-69
2023/11/05 04:47:50;;;;;;;3.07;0.73;;;7.00;99.90;;;;;;2090132;28;20656;-69
2023/11/05 04:48:50;;;;;;;0.40;0.40;;;7.00;99.90;;;;;;2090847;28;20261;-68
2023/11/05 04:49:51;;;;;;;0.80;0.50;;;7.00;99.90;;;;;;2090569;28;20222;-69
2023/11/05 04:50:52;;;;;;;0.27;0.27;;;7.00;99.90;;;;;;2089985;28;20250;-69
2023/11/05 04:51:52;;;;;;;0.40;0.40;;;7.00;99.90;;;;;;2091455;28;20222;-68
2023/11/05 04:52:53;;;;;;;0.40;0.37;;;7.00;99.90;;;;;;2090445;28;20861;-68
2023/11/05 04:53:53;;;;;;;0.30;0.30;;;6.90;99.90;;;;;;2089308;28;20231;-68
2023/11/05 04:54:54;;;;;;;0.67;0.40;;;6.90;99.90;;;;;;2090019;28;20227;-69
2023/11/05 04:55:55;;;;;;;0.88;0.40;;;6.90;99.90;;;;;;2089204;28;20242;-68
2023/11/05 04:56:56;;;;;;;0.30;0.30;;;7.00;99.90;;;;;;2092033;28;20395;-69
2023/11/05 04:57:58;;;;;;;1.70;0.70;;;7.00;99.90;;;;;;2088539;28;20220;-68
2023/11/05 04:58:58;;;;;;;0.40;0.40;;;7.00;99.90;;;;;;2100012;28;21079;-68
2023/11/05 04:59:59;;;;;;;0.40;0.30;;;7.00;99.90;;;;;;2091668;28;20258;-69
2023/11/05 05:00:59;;;;;;;0.50;0.50;;;7.00;99.90;;;;;;2093074;28;20222;-68
2023/11/05 05:02:00;;;;;;;0.43;0.40;;;7.00;99.90;;;;;;2092153;28;20230;-69
2023/11/05 05:03:02;;;;;;;1.05;0.52;;;7.00;99.90;;;;;;2091605;28;20254;-70
2023/11/05 05:04:03;;;;;;;0.95;0.40;;;7.00;99.90;;;;;;2091592;28;20226;-67
2023/11/05 05:05:04;;;;;;;0.77;0.60;;;7.00;99.90;;;;;;2091520;28;20202;-68
2023/11/05 05:06:05;;;;;;;0.40;0.30;;;7.00;99.90;;;;;;2091420;28;20567;-68
2023/11/05 05:07:06;;;;;;;0.30;0.30;;;7.00;99.90;;;;;;2091301;28;20202;-68
2023/11/05 05:08:07;;;;;;;0.40;0.40;;;7.00;99.90;;;;;;2090974;28;20195;-68
2023/11/05 05:09:09;;;;;;;2.43;0.80;;;7.00;99.90;;;;;;2091372;28;20204;-68
2023/11/05 05:10:10;;;;;;;0.40;0.40;;;7.00;99.90;;;;;;2090536;28;20183;-68
2023/11/05 05:11:10;;;;;;;1.85;0.50;;;7.00;99.90;;;;;;2090158;28;20194;-68
2023/11/05 05:12:11;;;;;;;0.80;0.40;;;7.00;99.90;;;;;;2090097;28;20596;-68
2023/11/05 05:13:12;;;;;;;0.50;0.50;;;7.00;99.90;;;;;;2089526;28;20195;-68
2023/11/05 05:14:12;;;;;;;0.27;0.20;;;7.10;99.90;;;;;;2097245;28;20641;-69
2023/11/05 05:15:13;;;;;;;0.30;0.30;;;7.20;99.90;;;;;;2089478;28;20218;-68
2023/11/05 05:16:18;;;;;;;0.80;0.63;;;7.20;99.90;;;;;;2089865;28;20561;-69
2023/11/05 05:17:18;;;;;;;1.48;0.32;;;7.10;99.90;;;;;;2089197;28;21033;-68
2023/11/05 05:18:19;;;;;;;2.80;0.30;;;7.20;99.90;;;;;;2088578;28;20263;-68
2023/11/05 05:19:20;;;;;;;1.03;0.60;;;7.20;99.90;;;;;;2091421;28;20290;-68
2023/11/05 05:20:20;;;;;;;0.43;0.40;;;7.10;99.90;;;;;;2088717;28;20262;-69
2023/11/05 05:21:21;;;;;;;0.30;0.30;;;7.20;99.90;;;;;;2096889;28;20243;-68